createdAt,value
2022-07-29T00:01:42.028Z,23.51
2022-07-29T00:04:44.667Z,23.47
2022-07-29T00:07:47.097Z,23.47
2022-07-29T00:10:50.495Z,23.38
2022-07-29T00:14:10.125Z,23.36
2022-07-29T00:17:19.071Z,23.42
2022-07-29T00:20:30.796Z,23.43
2022-07-29T00:23:36.693Z,23.38
2022-07-29T00:26:38.888Z,23.48
2022-07-29T00:29:43.396Z,23.42
2022-07-29T00:32:52.273Z,23.33
2022-07-29T00:35:55.328Z,23.35
2022-07-29T00:39:03.726Z,23.39
2022-07-29T00:42:06.691Z,23.38
2022-07-29T00:45:11.139Z,23.38
2022-07-29T00:48:15.131Z,23.38
2022-07-29T00:51:21.506Z,23.43
2022-07-29T00:54:26.947Z,23.42
2022-07-29T00:57:31.989Z,23.36
2022-07-29T01:00:34.705Z,23.29
2022-07-29T01:03:38.579Z,23.15
2022-07-29T01:06:47.889Z,23.02
2022-07-29T01:09:50.133Z,22.98
2022-07-29T01:12:53.424Z,23.01
2022-07-29T01:16:05.038Z,22.90
2022-07-29T01:19:28.919Z,22.95
2022-07-29T01:22:34.018Z,22.95
2022-07-29T01:25:35.837Z,22.96
2022-07-29T01:28:42.102Z,22.86
2022-07-29T01:31:58.522Z,22.83
2022-07-29T01:35:02.730Z,22.88
2022-07-29T01:38:12.570Z,22.73
2022-07-29T01:41:16.760Z,22.59
2022-07-29T01:44:27.940Z,22.52
2022-07-29T01:47:35.842Z,22.53
2022-07-29T01:50:41.576Z,22.54
2022-07-29T01:53:49.146Z,22.48
2022-07-29T01:56:53.333Z,22.49
2022-07-29T01:59:57.109Z,22.49
2022-07-29T02:03:00.715Z,22.48
2022-07-29T02:06:04.283Z,22.35
2022-07-29T02:09:08.533Z,22.35
2022-07-29T02:12:16.134Z,22.28
2022-07-29T02:15:18.873Z,22.23
2022-07-29T02:18:27.935Z,22.17
2022-07-29T02:21:33.522Z,22.12
2022-07-29T02:24:39.426Z,22.14
2022-07-29T02:27:43.549Z,22.17
2022-07-29T02:30:47.263Z,22.13
2022-07-29T02:33:50.552Z,22.03
2022-07-29T02:36:54.855Z,22.04
2022-07-29T02:39:58.640Z,21.98
2022-07-29T02:43:11.181Z,21.92
2022-07-29T02:46:28.921Z,21.87
2022-07-29T02:49:41.741Z,21.82
2022-07-29T02:52:51.092Z,21.81
2022-07-29T02:56:01.144Z,21.75
2022-07-29T02:59:05.753Z,21.68
2022-07-29T03:02:08.575Z,21.66
2022-07-29T03:05:15.701Z,21.65
2022-07-29T03:08:22.323Z,21.54
2022-07-29T03:11:41.468Z,21.57
2022-07-29T03:14:47.811Z,21.54
2022-07-29T03:17:51.203Z,21.47
2022-07-29T03:20:53.221Z,21.49
2022-07-29T03:23:55.733Z,21.47
2022-07-29T03:26:58.037Z,21.42
2022-07-29T03:30:05.894Z,21.39
2022-07-29T03:33:19.379Z,21.37
2022-07-29T03:36:24.776Z,21.38
2022-07-29T03:39:33.332Z,21.33
2022-07-29T03:42:37.002Z,21.28
2022-07-29T03:45:40.191Z,21.29
2022-07-29T03:48:50.206Z,21.37
2022-07-29T03:51:53.735Z,21.40
2022-07-29T03:54:57.268Z,21.38
2022-07-29T03:58:05.347Z,21.36
2022-07-29T04:01:08.087Z,21.43
2022-07-29T04:04:10.115Z,21.46
2022-07-29T04:07:21.373Z,21.46
2022-07-29T04:10:32.016Z,21.46
2022-07-29T04:13:42.402Z,21.49
2022-07-29T04:16:47.533Z,21.54
2022-07-29T04:19:49.914Z,21.55
2022-07-29T04:22:52.425Z,21.62
2022-07-29T04:25:54.493Z,21.54
2022-07-29T04:28:56.514Z,21.61
2022-07-29T04:31:58.391Z,21.69
2022-07-29T04:35:00.496Z,21.80
2022-07-29T04:41:06.815Z,21.73
2022-07-29T04:44:09.313Z,21.82
2022-07-29T04:47:11.578Z,21.84
2022-07-29T04:50:14.383Z,21.81
2022-07-29T04:53:25.097Z,22.03
2022-07-29T04:56:27.319Z,22.50
2022-07-29T04:59:29.539Z,22.53
2022-07-29T05:02:38.743Z,22.58
2022-07-29T05:05:43.979Z,22.43
2022-07-29T05:08:55.471Z,22.66
2022-07-29T05:12:03.153Z,22.68
2022-07-29T05:15:05.441Z,23.01
2022-07-29T05:18:12.845Z,23.24
2022-07-29T05:21:18.131Z,23.28
2022-07-29T05:24:20.711Z,23.50
2022-07-29T05:27:23.825Z,23.25
2022-07-29T05:30:27.310Z,23.10
2022-07-29T05:33:35.440Z,23.61
2022-07-29T05:36:39.023Z,23.98
2022-07-29T05:39:48.631Z,23.65
2022-07-29T05:42:52.808Z,23.70
2022-07-29T05:45:55.349Z,23.62
2022-07-29T05:49:00.599Z,23.57
2022-07-29T05:52:02.819Z,23.71
2022-07-29T05:55:06.693Z,23.83
2022-07-29T05:58:10.180Z,23.92
2022-07-29T06:01:13.827Z,23.87
2022-07-29T06:04:16.152Z,24.04
2022-07-29T06:07:18.755Z,24.27
2022-07-29T06:10:24.004Z,24.51
2022-07-29T06:13:32.340Z,24.64
2022-07-29T06:16:35.315Z,24.71
2022-07-29T06:19:39.638Z,24.59
2022-07-29T06:22:42.509Z,24.51
2022-07-29T06:25:44.747Z,24.49
2022-07-29T06:28:54.872Z,24.17
2022-07-29T06:31:57.160Z,24.34
2022-07-29T06:35:24.410Z,24.44
2022-07-29T06:38:30.841Z,24.41
2022-07-29T06:41:38.290Z,24.87
2022-07-29T06:44:41.426Z,25.00
2022-07-29T06:47:43.509Z,25.07
2022-07-29T06:50:45.670Z,25.17
2022-07-29T06:53:58.322Z,25.19
2022-07-29T06:57:04.167Z,25.58
2022-07-29T07:00:08.776Z,25.88
2022-07-29T07:03:10.736Z,26.04
2022-07-29T07:06:15.973Z,26.15
2022-07-29T07:09:19.005Z,26.32
2022-07-29T07:12:21.128Z,26.46
2022-07-29T07:15:23.309Z,27.08
2022-07-29T07:18:41.636Z,27.45
2022-07-29T07:21:44.735Z,27.62
2022-07-29T07:24:46.871Z,28.01
2022-07-29T07:27:48.852Z,28.66
2022-07-29T07:30:53.959Z,29.19
2022-07-29T07:33:56.106Z,31.00
2022-07-29T07:36:59.239Z,33.47
2022-07-29T07:40:02.561Z,35.45
2022-07-29T07:43:05.045Z,34.73
2022-07-29T07:46:07.159Z,35.38
2022-07-29T07:49:09.741Z,37.33
2022-07-29T07:52:12.430Z,37.00
2022-07-29T07:55:16.111Z,38.01
2022-07-29T07:58:18.437Z,37.91
2022-07-29T08:01:24.865Z,38.20
2022-07-29T08:04:28.982Z,38.57
2022-07-29T08:07:32.029Z,38.46
2022-07-29T08:10:52.737Z,38.98
2022-07-29T08:13:55.906Z,36.73
2022-07-29T08:17:00.510Z,36.24
2022-07-29T08:20:03.784Z,33.76
2022-07-29T08:23:09.206Z,32.60
2022-07-29T08:26:13.928Z,31.78
2022-07-29T08:29:19.920Z,33.27
2022-07-29T08:32:50.910Z,31.64
2022-07-29T08:35:46.895Z,30.57
2022-07-29T08:38:51.050Z,30.84
2022-07-29T08:41:57.352Z,30.49
2022-07-29T08:45:00.811Z,30.90
2022-07-29T08:48:03.455Z,31.45
2022-07-29T08:51:06.781Z,31.12
2022-07-29T08:54:11.706Z,31.21
2022-07-29T08:57:15.186Z,31.49
2022-07-29T09:00:19.558Z,30.98
2022-07-29T09:03:25.538Z,31.03
2022-07-29T09:06:32.654Z,30.96
2022-07-29T09:09:35.348Z,31.43
2022-07-29T09:12:38.335Z,31.70
2022-07-29T09:15:40.894Z,31.88
2022-07-29T09:18:45.416Z,32.00
2022-07-29T09:22:00.342Z,31.69
2022-07-29T09:25:04.461Z,32.20
2022-07-29T09:28:07.641Z,31.78
2022-07-29T09:31:09.629Z,32.39
2022-07-29T09:34:13.040Z,32.57
2022-07-29T09:37:27.684Z,32.79
2022-07-29T09:40:29.974Z,32.70
2022-07-29T09:43:32.502Z,32.88
2022-07-29T09:46:36.546Z,33.20
2022-07-29T09:49:52.253Z,33.11
2022-07-29T09:52:57.037Z,32.70
2022-07-29T09:56:00.341Z,31.84
2022-07-29T09:59:09.061Z,32.61
2022-07-29T10:02:20.291Z,33.14
2022-07-29T10:05:27.135Z,33.37
2022-07-29T10:08:39.735Z,33.59
2022-07-29T10:11:49.579Z,33.34
2022-07-29T10:14:52.430Z,32.90
2022-07-29T10:17:55.282Z,32.86
2022-07-29T10:20:57.978Z,32.80
2022-07-29T10:24:01.136Z,33.29
2022-07-29T10:27:04.815Z,33.51
2022-07-29T10:30:07.776Z,33.73
2022-07-29T10:33:28.334Z,33.47
2022-07-29T10:36:31.625Z,33.34
2022-07-29T10:39:58.566Z,33.84
2022-07-29T10:43:18.905Z,33.84
2022-07-29T10:46:22.623Z,34.13
2022-07-29T10:49:30.592Z,34.44
2022-07-29T10:52:49.570Z,34.54
2022-07-29T10:55:53.775Z,34.52
2022-07-29T10:59:14.577Z,34.05
2022-07-29T11:02:41.808Z,34.51
2022-07-29T11:05:56.697Z,34.37
2022-07-29T11:09:25.768Z,34.35
2022-07-29T11:12:37.148Z,34.29
2022-07-29T11:15:57.065Z,33.87
2022-07-29T11:19:13.135Z,34.09
2022-07-29T11:22:36.512Z,34.76
2022-07-29T11:25:50.832Z,34.69
2022-07-29T11:28:55.527Z,34.33
2022-07-29T11:32:09.731Z,34.19
2022-07-29T11:35:37.098Z,34.05
2022-07-29T11:38:42.260Z,35.03
2022-07-29T11:41:44.291Z,34.98
2022-07-29T11:45:43.798Z,35.10
2022-07-29T11:48:37.032Z,35.48
2022-07-29T11:51:48.564Z,35.79
2022-07-29T11:54:58.136Z,35.45
2022-07-29T11:58:04.853Z,35.46
2022-07-29T12:01:07.481Z,35.67
2022-07-29T12:04:09.907Z,35.71
2022-07-29T12:07:15.521Z,35.86
2022-07-29T12:10:20.151Z,35.76
2022-07-29T12:13:39.632Z,35.94
2022-07-29T12:16:41.673Z,35.87
2022-07-29T12:19:44.762Z,35.50
2022-07-29T12:22:49.447Z,35.58
2022-07-29T12:25:51.695Z,35.75
2022-07-29T12:28:56.039Z,35.80
2022-07-29T12:32:00.436Z,35.79
2022-07-29T12:35:07.941Z,35.73
2022-07-29T12:38:11.671Z,35.81
2022-07-29T12:41:13.808Z,35.77
2022-07-29T12:44:16.283Z,35.95
2022-07-29T12:47:21.672Z,35.81
2022-07-29T12:50:26.443Z,35.26
2022-07-29T12:53:29.292Z,35.27
2022-07-29T12:56:46.549Z,35.65
2022-07-29T13:00:04.402Z,35.41
2022-07-29T13:03:07.270Z,35.57
2022-07-29T13:06:28.130Z,35.46
2022-07-29T13:09:39.163Z,35.33
2022-07-29T13:13:01.081Z,34.89
2022-07-29T13:16:07.034Z,35.16
2022-07-29T13:19:10.445Z,34.98
2022-07-29T13:22:24.590Z,35.37
2022-07-29T13:25:28.125Z,35.59
2022-07-29T13:28:30.464Z,35.42
2022-07-29T13:31:32.667Z,35.51
2022-07-29T13:34:34.586Z,35.62
2022-07-29T13:37:39.783Z,34.98
2022-07-29T13:40:42.188Z,34.87
2022-07-29T13:43:44.818Z,34.45
2022-07-29T13:46:46.911Z,34.16
2022-07-29T13:49:49.719Z,34.78
2022-07-29T13:52:52.549Z,35.06
2022-07-29T13:55:55.025Z,35.14
2022-07-29T13:58:57.088Z,35.23
2022-07-29T14:02:01.041Z,34.76
2022-07-29T14:05:08.035Z,34.12
2022-07-29T14:08:10.909Z,34.12
2022-07-29T14:11:12.942Z,34.26
2022-07-29T14:14:14.925Z,34.63
2022-07-29T14:17:16.912Z,34.75
2022-07-29T14:20:19.155Z,34.97
2022-07-29T14:42:35.035Z,34.97
2022-07-29T14:45:37.630Z,34.97
2022-07-29T14:48:40.648Z,34.88
2022-07-29T14:51:43.091Z,34.30
2022-07-29T14:54:45.102Z,34.44
2022-07-29T14:57:47.418Z,34.67
2022-07-29T15:00:49.493Z,34.61
2022-07-29T15:03:51.746Z,34.56
2022-07-29T15:06:54.566Z,34.72
2022-07-29T15:09:59.806Z,34.76
2022-07-29T15:13:01.815Z,34.69
2022-07-29T15:16:04.227Z,34.50
2022-07-29T15:19:06.316Z,34.49
2022-07-29T15:22:08.375Z,34.24
2022-07-29T15:25:11.026Z,34.15
2022-07-29T15:28:13.194Z,34.19
2022-07-29T15:31:15.321Z,34.05
2022-07-29T15:34:18.091Z,33.90
2022-07-29T15:37:21.438Z,34.05
2022-07-29T15:40:23.957Z,34.18
2022-07-29T15:43:26.600Z,34.19
2022-07-29T15:46:48.051Z,34.15
2022-07-29T15:49:50.662Z,34.10
2022-07-29T15:52:52.633Z,34.09
2022-07-29T15:55:54.712Z,34.04
2022-07-29T15:58:56.784Z,34.09
2022-07-29T16:01:58.881Z,34.05
2022-07-29T16:05:01.014Z,33.67
2022-07-29T16:08:03.053Z,33.70
2022-07-29T16:11:05.027Z,33.58
2022-07-29T16:14:09.260Z,33.61
2022-07-29T16:17:14.965Z,33.75
2022-07-29T16:20:17.141Z,33.65
2022-07-29T16:23:19.559Z,33.29
2022-07-29T16:26:22.627Z,33.15
2022-07-29T16:29:24.587Z,33.08
2022-07-29T16:32:27.015Z,33.02
2022-07-29T16:35:39.077Z,32.86
2022-07-29T16:38:47.326Z,32.79
2022-07-29T16:41:50.691Z,32.85
2022-07-29T16:44:53.205Z,32.83
2022-07-29T16:48:00.179Z,32.76
2022-07-29T16:51:03.286Z,32.75
2022-07-29T16:54:05.688Z,32.69
2022-07-29T16:57:07.573Z,32.42
2022-07-29T17:00:11.217Z,32.23
2022-07-29T17:03:13.715Z,31.99
2022-07-29T17:06:16.010Z,31.84
2022-07-29T17:09:17.894Z,31.81
2022-07-29T17:12:21.508Z,31.64
2022-07-29T17:15:23.861Z,31.52
2022-07-29T17:18:25.985Z,31.39
2022-07-29T17:21:28.502Z,31.24
2022-07-29T17:24:30.921Z,31.12
2022-07-29T17:27:34.631Z,30.98
2022-07-29T17:30:36.683Z,30.84
2022-07-29T17:33:38.836Z,30.76
2022-07-29T17:36:41.458Z,30.62
2022-07-29T17:39:43.644Z,30.52
2022-07-29T17:42:45.940Z,30.42
2022-07-29T17:45:48.840Z,30.30
2022-07-29T17:48:57.396Z,30.17
2022-07-29T17:52:01.060Z,30.01
2022-07-29T17:55:03.306Z,29.85
2022-07-29T17:58:06.553Z,29.73
2022-07-29T18:01:10.914Z,29.58
2022-07-29T18:04:13.442Z,29.42
2022-07-29T18:07:17.541Z,29.27
2022-07-29T18:10:19.490Z,29.11
2022-07-29T18:13:21.950Z,28.95
2022-07-29T18:16:24.023Z,28.82
2022-07-29T18:19:26.115Z,28.66
2022-07-29T18:22:28.440Z,28.51
2022-07-29T18:25:32.380Z,28.40
2022-07-29T18:28:36.471Z,28.27
2022-07-29T18:31:39.063Z,28.12
2022-07-29T18:34:40.999Z,28.01
2022-07-29T18:38:01.667Z,27.90
2022-07-29T18:41:05.099Z,27.78
2022-07-29T18:44:08.197Z,27.67
2022-07-29T18:47:12.009Z,27.57
2022-07-29T18:50:14.839Z,27.51
2022-07-29T18:53:18.285Z,27.39
2022-07-29T18:56:22.346Z,27.29
2022-07-29T18:59:26.115Z,27.22
2022-07-29T19:02:28.410Z,27.14
2022-07-29T19:05:32.041Z,26.97
2022-07-29T19:08:34.204Z,27.15
2022-07-29T19:11:36.899Z,27.43
2022-07-29T19:14:39.445Z,27.64
2022-07-29T19:17:42.195Z,27.81
2022-07-29T19:20:44.322Z,27.99
2022-07-29T19:24:01.474Z,28.07
2022-07-29T19:27:08.697Z,28.11
2022-07-29T19:30:12.644Z,28.18
2022-07-29T19:33:17.641Z,28.19
2022-07-29T19:36:20.024Z,28.12
2022-07-29T19:39:34.896Z,28.04
2022-07-29T19:42:38.884Z,27.97
2022-07-29T19:45:41.057Z,27.85
2022-07-29T19:48:43.459Z,27.80
2022-07-29T19:51:45.447Z,27.70
2022-07-29T19:54:51.987Z,27.61
2022-07-29T19:57:54.802Z,27.52
2022-07-29T20:00:57.189Z,27.46
2022-07-29T20:04:01.811Z,27.38
2022-07-29T20:07:04.291Z,27.39
2022-07-29T20:10:07.615Z,27.31
2022-07-29T20:13:13.765Z,27.25
2022-07-29T20:16:16.265Z,27.12
2022-07-29T20:19:21.765Z,27.05
2022-07-29T20:22:23.682Z,26.89
2022-07-29T20:25:26.027Z,26.85
2022-07-29T20:28:32.019Z,26.79
2022-07-29T20:31:35.488Z,26.75
2022-07-29T20:34:37.798Z,26.61
2022-07-29T20:37:52.533Z,26.54
2022-07-29T20:40:58.965Z,26.49
2022-07-29T20:44:01.997Z,26.36
2022-07-29T20:47:05.330Z,26.34
2022-07-29T20:50:07.714Z,26.19
2022-07-29T20:53:09.680Z,26.18
2022-07-29T20:56:14.346Z,26.17
2022-07-29T20:59:18.341Z,26.04
2022-07-29T21:02:20.260Z,26.04
2022-07-29T21:05:22.435Z,25.97
2022-07-29T21:08:26.477Z,25.99
2022-07-29T21:11:43.485Z,25.85
2022-07-29T21:14:48.051Z,25.78
2022-07-29T21:17:56.805Z,25.81
2022-07-29T21:20:59.358Z,25.69
2022-07-29T21:24:02.849Z,25.57
2022-07-29T21:27:23.925Z,25.51
2022-07-29T21:30:25.958Z,25.43
2022-07-29T21:33:29.202Z,25.34
2022-07-29T21:39:53.138Z,25.12
2022-07-29T21:42:55.115Z,25.01
2022-07-29T21:45:57.490Z,24.96
2022-07-29T21:48:59.851Z,24.85
2022-07-29T21:52:01.850Z,24.79
2022-07-29T21:55:03.912Z,24.75
2022-07-29T21:58:06.565Z,24.72
2022-07-29T22:01:08.629Z,24.64
2022-07-29T22:04:10.666Z,24.54
2022-07-29T22:07:13.072Z,24.54
2022-07-29T22:10:15.359Z,24.47
2022-07-29T22:13:18.447Z,24.38
2022-07-29T22:16:20.480Z,24.37
2022-07-29T22:19:27.630Z,24.24
2022-07-29T22:22:31.964Z,24.24
2022-07-29T22:25:34.334Z,24.16
2022-07-29T22:28:36.331Z,24.09
2022-07-29T22:31:38.311Z,24.05
2022-07-29T22:34:41.071Z,23.99
2022-07-29T22:37:44.791Z,23.97
2022-07-29T22:40:48.699Z,23.85
2022-07-29T22:43:54.222Z,23.87
2022-07-29T22:46:59.269Z,23.81
2022-07-29T22:50:01.807Z,23.88
2022-07-29T22:53:08.611Z,23.83
2022-07-29T22:56:17.299Z,23.78
2022-07-29T22:59:20.810Z,23.60
2022-07-29T23:02:26.934Z,23.50
2022-07-29T23:05:32.123Z,23.43
2022-07-29T23:08:34.647Z,23.38
2022-07-29T23:11:36.813Z,23.34
2022-07-29T23:14:38.947Z,23.23
2022-07-29T23:17:41.101Z,23.12
2022-07-29T23:20:43.809Z,23.02
2022-07-29T23:23:45.831Z,22.98
2022-07-29T23:26:48.133Z,23.01
2022-07-29T23:29:50.310Z,22.93
2022-07-29T23:32:54.584Z,22.94
2022-07-29T23:36:01.368Z,22.87
2022-07-29T23:39:03.485Z,22.81
2022-07-29T23:42:05.508Z,22.93
2022-07-29T23:45:11.309Z,22.85
2022-07-29T23:48:14.744Z,22.82
2022-07-29T23:51:16.642Z,22.74
2022-07-29T23:54:23.551Z,22.62
2022-07-29T23:57:37.619Z,22.70
